createdAt,value
2022-11-30T00:09:08.476Z,-1.20
2022-11-30T00:19:12.096Z,-1.10
2022-11-30T00:29:16.870Z,-1.20
2022-11-30T00:39:20.333Z,-1.20
2022-11-30T00:49:25.217Z,-1.20
2022-11-30T00:59:29.172Z,-1.20
2022-11-30T01:09:34.086Z,-1.30
2022-11-30T01:19:37.524Z,-1.30
2022-11-30T01:29:42.318Z,-1.30
2022-11-30T01:39:45.832Z,-1.40
2022-11-30T01:49:56.341Z,-1.40
2022-11-30T02:00:03.483Z,-1.40
2022-11-30T02:10:22.094Z,-1.40
2022-11-30T02:20:51.329Z,-1.40
2022-11-30T02:30:58.338Z,-1.50
2022-11-30T02:41:02.494Z,-1.50
2022-11-30T02:51:11.122Z,-1.50
2022-11-30T03:01:14.720Z,-1.50
2022-11-30T03:11:19.671Z,-1.50
2022-11-30T03:21:23.187Z,-1.70
2022-11-30T03:31:28.023Z,-1.80
2022-11-30T03:41:31.633Z,-1.80
2022-11-30T03:51:36.619Z,-1.80
2022-11-30T04:01:41.149Z,-1.90
2022-11-30T04:11:46.083Z,-1.90
2022-11-30T04:21:49.569Z,-1.80
2022-11-30T04:31:54.691Z,-1.90
2022-11-30T04:41:58.099Z,-2.00
2022-11-30T04:52:02.990Z,-2.00
2022-11-30T05:02:06.452Z,-1.90
2022-11-30T05:12:11.338Z,-1.90
2022-11-30T05:22:15.110Z,-1.80
2022-11-30T05:32:20.092Z,-1.80
2022-11-30T05:42:23.705Z,-1.80
2022-11-30T05:52:28.603Z,-1.80
2022-11-30T06:02:32.198Z,-1.80
2022-11-30T06:12:37.066Z,-1.90
2022-11-30T06:22:40.551Z,-2.00
2022-11-30T06:32:48.041Z,-2.10
2022-11-30T06:42:51.545Z,-2.10
2022-11-30T06:52:57.580Z,-2.10
2022-11-30T07:03:01.028Z,-2.10
2022-11-30T07:13:05.841Z,-2.00
2022-11-30T07:23:27.128Z,-1.90
2022-11-30T07:33:32.788Z,-1.70
2022-11-30T07:43:36.625Z,-1.70
2022-11-30T07:53:41.920Z,-1.50
2022-11-30T08:03:45.513Z,-1.60
2022-11-30T08:13:50.561Z,-1.50
2022-11-30T08:23:57.109Z,-1.50
2022-11-30T08:34:05.189Z,-1.70
2022-11-30T08:44:08.951Z,-1.50
2022-11-30T08:54:13.773Z,-1.40
2022-11-30T09:04:17.187Z,-1.30
2022-11-30T09:14:21.998Z,-1.30
2022-11-30T09:24:25.480Z,-1.30
2022-11-30T09:34:30.299Z,-1.20
2022-11-30T09:44:45.941Z,-1.10
2022-11-30T09:54:51.086Z,-0.90
2022-11-30T10:04:54.542Z,-0.70
2022-11-30T10:15:19.778Z,-0.70
2022-11-30T10:25:25.870Z,-0.60
2022-11-30T10:35:36.793Z,-0.70
2022-11-30T10:45:45.738Z,-0.70
2022-11-30T10:56:00.110Z,-0.80
2022-11-30T11:06:16.235Z,-0.70
2022-11-30T11:16:21.113Z,-0.60
2022-11-30T11:26:26.637Z,-0.70
2022-11-30T11:36:37.778Z,-0.80
2022-11-30T11:46:58.364Z,-0.70
2022-11-30T11:57:03.673Z,-0.80
2022-11-30T12:07:19.814Z,-0.80
2022-11-30T12:17:45.260Z,-0.80
2022-11-30T12:28:00.452Z,-0.80
2022-11-30T12:38:20.374Z,-0.80
2022-11-30T12:48:35.909Z,-0.90
2022-11-30T12:58:49.127Z,-1.10
2022-11-30T13:09:02.222Z,-1.20
2022-11-30T13:19:27.145Z,-1.20
2022-11-30T13:30:01.453Z,-1.10
2022-11-30T13:40:21.151Z,-1.30
2022-11-30T13:50:37.077Z,-1.10
2022-11-30T14:01:05.841Z,-1.20
2022-11-30T14:11:44.606Z,-1.20
2022-11-30T14:21:50.169Z,-1.20
2022-11-30T14:31:58.666Z,-1.30
2022-11-30T14:42:05.883Z,-1.20
2022-11-30T14:52:15.277Z,-1.30
2022-11-30T15:02:30.826Z,-1.30
2022-11-30T15:12:35.777Z,-1.40
2022-11-30T15:22:40.559Z,-1.40
2022-11-30T15:32:52.371Z,-1.30
2022-11-30T15:42:57.846Z,-1.20
2022-11-30T15:53:04.300Z,-1.20
2022-11-30T16:03:14.206Z,-1.20
2022-11-30T16:13:20.320Z,-1.10
2022-11-30T16:23:26.032Z,-1.00
2022-11-30T16:33:29.496Z,-1.10
2022-11-30T16:43:34.570Z,-1.00
2022-11-30T16:53:38.057Z,-1.10
2022-11-30T17:03:47.175Z,-1.10
2022-11-30T17:13:50.653Z,-1.10
2022-11-30T17:23:55.749Z,-1.00
2022-11-30T17:33:59.270Z,-1.00
2022-11-30T17:44:04.850Z,-1.00
2022-11-30T17:54:08.290Z,-1.00
2022-11-30T18:04:13.581Z,-1.10
2022-11-30T18:14:17.038Z,-1.00
2022-11-30T18:24:25.268Z,-1.00
2022-11-30T18:34:29.474Z,-1.10
2022-11-30T18:44:34.452Z,-1.10
2022-11-30T18:54:38.003Z,-1.10
2022-11-30T19:04:42.965Z,-1.10
2022-11-30T19:14:46.727Z,-1.10
2022-11-30T19:24:51.806Z,-1.20
2022-11-30T19:34:55.243Z,-1.30
2022-11-30T19:45:00.136Z,-1.30
2022-11-30T19:55:03.737Z,-1.30
2022-11-30T20:05:10.154Z,-1.30
2022-11-30T20:15:13.769Z,-1.30
2022-11-30T20:25:21.262Z,-1.20
2022-11-30T20:35:24.709Z,-1.20
2022-11-30T20:45:29.625Z,-1.10
2022-11-30T20:55:33.135Z,-1.10
2022-11-30T21:05:40.215Z,-1.00
2022-11-30T21:15:43.830Z,-1.00
2022-11-30T21:25:48.695Z,-1.00
2022-11-30T21:35:52.126Z,-0.80
2022-11-30T21:46:01.645Z,-0.80
2022-11-30T21:56:06.460Z,-0.80
2022-11-30T22:06:13.748Z,-0.80
2022-11-30T22:16:18.984Z,-0.70
2022-11-30T22:26:26.235Z,-0.70
2022-11-30T22:36:32.914Z,-0.70
2022-11-30T22:46:38.902Z,-0.70
2022-11-30T22:56:42.899Z,-0.60
2022-11-30T23:06:49.425Z,-0.70
2022-11-30T23:16:52.990Z,-0.60
2022-11-30T23:26:57.755Z,-0.60
2022-11-30T23:37:01.201Z,-0.60
2022-11-30T23:47:06.325Z,-0.50
2022-11-30T23:57:09.764Z,-0.50
